sensor_id;sensor_type;location;lat;lon;timestamp;P1;durP1;ratioP1;P2;durP2;ratioP2
51907;SDS011;39320;53.214;6.556;2022-10-31T00:01:10;4.00;;;3.00;;
51907;SDS011;39320;53.214;6.556;2022-10-31T00:03:37;3.72;;;3.42;;
51907;SDS011;39320;53.214;6.556;2022-10-31T00:06:03;3.20;;;2.90;;
51907;SDS011;39320;53.214;6.556;2022-10-31T00:08:29;3.03;;;2.72;;
51907;SDS011;39320;53.214;6.556;2022-10-31T00:10:55;3.53;;;3.22;;
51907;SDS011;39320;53.214;6.556;2022-10-31T00:13:21;3.17;;;2.88;;
51907;SDS011;39320;53.214;6.556;2022-10-31T00:15:47;3.75;;;3.28;;
51907;SDS011;39320;53.214;6.556;2022-10-31T00:18:12;3.88;;;3.50;;
51907;SDS011;39320;53.214;6.556;2022-10-31T00:20:38;3.50;;;3.20;;
51907;SDS011;39320;53.214;6.556;2022-10-31T00:23:04;3.35;;;3.10;;
51907;SDS011;39320;53.214;6.556;2022-10-31T00:25:35;4.28;;;3.67;;
51907;SDS011;39320;53.214;6.556;2022-10-31T00:28:05;3.58;;;3.28;;
51907;SDS011;39320;53.214;6.556;2022-10-31T00:30:33;3.05;;;2.85;;
51907;SDS011;39320;53.214;6.556;2022-10-31T00:32:59;3.40;;;3.10;;
51907;SDS011;39320;53.214;6.556;2022-10-31T00:35:25;4.22;;;3.10;;
51907;SDS011;39320;53.214;6.556;2022-10-31T00:37:51;3.40;;;3.10;;
51907;SDS011;39320;53.214;6.556;2022-10-31T00:40:18;3.67;;;3.38;;
51907;SDS011;39320;53.214;6.556;2022-10-31T00:42:44;3.60;;;3.30;;
51907;SDS011;39320;53.214;6.556;2022-10-31T00:45:09;3.70;;;3.35;;
51907;SDS011;39320;53.214;6.556;2022-10-31T00:47:35;3.83;;;3.40;;
51907;SDS011;39320;53.214;6.556;2022-10-31T00:50:02;3.20;;;2.92;;
51907;SDS011;39320;53.214;6.556;2022-10-31T00:52:31;3.30;;;3.00;;
51907;SDS011;39320;53.214;6.556;2022-10-31T00:54:57;3.90;;;3.50;;
51907;SDS011;39320;53.214;6.556;2022-10-31T00:57:23;3.70;;;3.40;;
51907;SDS011;39320;53.214;6.556;2022-10-31T00:59:49;3.83;;;3.53;;
51907;SDS011;39320;53.214;6.556;2022-10-31T01:02:15;3.60;;;3.40;;
51907;SDS011;39320;53.214;6.556;2022-10-31T01:04:40;3.38;;;3.17;;
51907;SDS011;39320;53.214;6.556;2022-10-31T01:07:07;3.42;;;3.13;;
51907;SDS011;39320;53.214;6.556;2022-10-31T01:09:33;3.50;;;3.20;;
51907;SDS011;39320;53.214;6.556;2022-10-31T01:11:59;3.90;;;3.60;;
51907;SDS011;39320;53.214;6.556;2022-10-31T01:14:24;3.17;;;2.90;;
51907;SDS011;39320;53.214;6.556;2022-10-31T01:16:50;3.40;;;3.10;;
51907;SDS011;39320;53.214;6.556;2022-10-31T01:19:16;3.95;;;3.33;;
51907;SDS011;39320;53.214;6.556;2022-10-31T01:21:42;3.40;;;3.10;;
51907;SDS011;39320;53.214;6.556;2022-10-31T01:24:08;3.88;;;3.55;;
51907;SDS011;39320;53.214;6.556;2022-10-31T01:26:34;3.88;;;3.58;;
51907;SDS011;39320;53.214;6.556;2022-10-31T01:29:00;3.42;;;3.17;;
51907;SDS011;39320;53.214;6.556;2022-10-31T01:31:32;3.58;;;3.25;;
51907;SDS011;39320;53.214;6.556;2022-10-31T01:34:00;3.22;;;2.95;;
51907;SDS011;39320;53.214;6.556;2022-10-31T01:36:28;3.40;;;3.10;;
51907;SDS011;39320;53.214;6.556;2022-10-31T01:39:03;3.45;;;3.15;;
51907;SDS011;39320;53.214;6.556;2022-10-31T01:41:44;3.45;;;3.15;;
51907;SDS011;39320;53.214;6.556;2022-10-31T01:46:41;2.90;;;2.60;;
51907;SDS011;39320;53.214;6.556;2022-10-31T01:49:40;3.13;;;2.83;;
51907;SDS011;39320;53.214;6.556;2022-10-31T01:54:57;3.20;;;3.00;;
51907;SDS011;39320;53.214;6.556;2022-10-31T01:57:31;3.10;;;2.90;;
51907;SDS011;39320;53.214;6.556;2022-10-31T01:59:59;3.33;;;3.03;;
51907;SDS011;39320;53.214;6.556;2022-10-31T02:02:28;3.15;;;2.95;;
51907;SDS011;39320;53.214;6.556;2022-10-31T02:04:55;3.15;;;2.88;;
51907;SDS011;39320;53.214;6.556;2022-10-31T02:07:26;3.33;;;3.08;;
51907;SDS011;39320;53.214;6.556;2022-10-31T02:10:03;3.13;;;2.92;;
51907;SDS011;39320;53.214;6.556;2022-10-31T02:12:30;3.85;;;3.10;;
51907;SDS011;39320;53.214;6.556;2022-10-31T02:14:58;2.90;;;2.70;;
51907;SDS011;39320;53.214;6.556;2022-10-31T02:17:25;3.67;;;3.30;;
51907;SDS011;39320;53.214;6.556;2022-10-31T02:33:43;3.60;;;3.30;;
51907;SDS011;39320;53.214;6.556;2022-10-31T02:36:27;3.30;;;3.00;;
51907;SDS011;39320;53.214;6.556;2022-10-31T02:39:10;3.25;;;2.95;;
51907;SDS011;39320;53.214;6.556;2022-10-31T02:47:03;3.85;;;3.55;;
51907;SDS011;39320;53.214;6.556;2022-10-31T02:49:38;3.55;;;3.25;;
51907;SDS011;39320;53.214;6.556;2022-10-31T02:52:18;3.33;;;3.13;;
51907;SDS011;39320;53.214;6.556;2022-10-31T02:54:52;3.53;;;3.15;;
51907;SDS011;39320;53.214;6.556;2022-10-31T02:59:59;3.45;;;3.08;;
51907;SDS011;39320;53.214;6.556;2022-10-31T03:10:51;3.55;;;3.25;;
51907;SDS011;39320;53.214;6.556;2022-10-31T03:16:06;3.65;;;3.35;;
51907;SDS011;39320;53.214;6.556;2022-10-31T03:19:01;3.80;;;3.50;;
51907;SDS011;39320;53.214;6.556;2022-10-31T03:21:30;3.80;;;3.53;;
51907;SDS011;39320;53.214;6.556;2022-10-31T03:24:08;3.25;;;3.05;;
51907;SDS011;39320;53.214;6.556;2022-10-31T03:26:36;3.25;;;3.05;;
51907;SDS011;39320;53.214;6.556;2022-10-31T03:29:08;3.88;;;3.58;;
51907;SDS011;39320;53.214;6.556;2022-10-31T03:32:00;3.60;;;3.30;;
51907;SDS011;39320;53.214;6.556;2022-10-31T03:34:25;3.65;;;3.35;;
51907;SDS011;39320;53.214;6.556;2022-10-31T03:36:55;4.15;;;3.60;;
51907;SDS011;39320;53.214;6.556;2022-10-31T03:39:23;3.55;;;3.25;;
51907;SDS011;39320;53.214;6.556;2022-10-31T03:41:54;3.58;;;3.28;;
51907;SDS011;39320;53.214;6.556;2022-10-31T03:44:24;3.30;;;3.00;;
51907;SDS011;39320;53.214;6.556;2022-10-31T03:46:52;3.25;;;2.97;;
51907;SDS011;39320;53.214;6.556;2022-10-31T03:49:18;3.65;;;3.35;;
51907;SDS011;39320;53.214;6.556;2022-10-31T03:51:58;3.80;;;3.50;;
51907;SDS011;39320;53.214;6.556;2022-10-31T03:57:24;3.70;;;3.40;;
51907;SDS011;39320;53.214;6.556;2022-10-31T03:59:51;3.30;;;3.10;;
51907;SDS011;39320;53.214;6.556;2022-10-31T04:02:23;3.17;;;2.97;;
51907;SDS011;39320;53.214;6.556;2022-10-31T04:04:54;3.70;;;3.40;;
51907;SDS011;39320;53.214;6.556;2022-10-31T04:07:21;3.28;;;2.97;;
51907;SDS011;39320;53.214;6.556;2022-10-31T04:09:51;3.53;;;3.22;;
51907;SDS011;39320;53.214;6.556;2022-10-31T04:12:18;3.63;;;3.33;;
51907;SDS011;39320;53.214;6.556;2022-10-31T04:14:47;3.60;;;3.30;;
51907;SDS011;39320;53.214;6.556;2022-10-31T04:17:17;3.70;;;3.40;;
51907;SDS011;39320;53.214;6.556;2022-10-31T04:19:46;3.40;;;3.10;;
51907;SDS011;39320;53.214;6.556;2022-10-31T04:22:12;2.90;;;2.70;;
51907;SDS011;39320;53.214;6.556;2022-10-31T04:24:38;3.47;;;3.17;;
51907;SDS011;39320;53.214;6.556;2022-10-31T04:27:05;3.20;;;3.00;;
51907;SDS011;39320;53.214;6.556;2022-10-31T04:29:32;3.20;;;2.90;;
51907;SDS011;39320;53.214;6.556;2022-10-31T04:31:58;3.72;;;3.13;;
51907;SDS011;39320;53.214;6.556;2022-10-31T04:34:23;3.55;;;3.25;;
51907;SDS011;39320;53.214;6.556;2022-10-31T04:36:49;3.35;;;3.05;;
51907;SDS011;39320;53.214;6.556;2022-10-31T04:39:15;3.53;;;3.22;;
51907;SDS011;39320;53.214;6.556;2022-10-31T04:41:41;3.30;;;3.00;;
51907;SDS011;39320;53.214;6.556;2022-10-31T04:44:06;4.30;;;3.53;;
51907;SDS011;39320;53.214;6.556;2022-10-31T04:46:32;3.22;;;3.03;;
51907;SDS011;39320;53.214;6.556;2022-10-31T04:48:58;3.63;;;3.30;;
51907;SDS011;39320;53.214;6.556;2022-10-31T04:51:24;3.55;;;3.25;;
51907;SDS011;39320;53.214;6.556;2022-10-31T04:53:50;3.70;;;3.40;;
51907;SDS011;39320;53.214;6.556;2022-10-31T04:56:15;3.42;;;3.03;;
51907;SDS011;39320;53.214;6.556;2022-10-31T04:58:41;3.10;;;2.80;;
51907;SDS011;39320;53.214;6.556;2022-10-31T05:01:07;3.92;;;3.63;;
51907;SDS011;39320;53.214;6.556;2022-10-31T05:03:32;3.67;;;3.38;;
51907;SDS011;39320;53.214;6.556;2022-10-31T05:05:58;3.40;;;3.17;;
51907;SDS011;39320;53.214;6.556;2022-10-31T05:08:24;3.08;;;2.88;;
51907;SDS011;39320;53.214;6.556;2022-10-31T05:10:50;3.35;;;3.05;;
51907;SDS011;39320;53.214;6.556;2022-10-31T05:13:16;3.60;;;3.30;;
51907;SDS011;39320;53.214;6.556;2022-10-31T05:15:42;3.03;;;2.70;;
51907;SDS011;39320;53.214;6.556;2022-10-31T05:18:08;3.28;;;2.97;;
51907;SDS011;39320;53.214;6.556;2022-10-31T05:20:34;3.38;;;3.08;;
51907;SDS011;39320;53.214;6.556;2022-10-31T05:23:00;3.78;;;3.47;;
51907;SDS011;39320;53.214;6.556;2022-10-31T05:25:26;3.35;;;3.05;;
51907;SDS011;39320;53.214;6.556;2022-10-31T05:27:53;3.60;;;3.30;;
51907;SDS011;39320;53.214;6.556;2022-10-31T05:30:21;4.63;;;3.10;;
51907;SDS011;39320;53.214;6.556;2022-10-31T05:32:49;3.22;;;2.92;;
51907;SDS011;39320;53.214;6.556;2022-10-31T05:35:17;3.88;;;3.58;;
51907;SDS011;39320;53.214;6.556;2022-10-31T05:37:45;3.00;;;2.80;;
51907;SDS011;39320;53.214;6.556;2022-10-31T05:40:12;3.42;;;3.13;;
51907;SDS011;39320;53.214;6.556;2022-10-31T05:42:46;2.90;;;2.70;;
51907;SDS011;39320;53.214;6.556;2022-10-31T05:45:13;3.38;;;3.15;;
51907;SDS011;39320;53.214;6.556;2022-10-31T05:47:40;3.22;;;2.92;;
51907;SDS011;39320;53.214;6.556;2022-10-31T05:50:07;2.97;;;2.78;;
51907;SDS011;39320;53.214;6.556;2022-10-31T05:52:33;3.30;;;3.10;;
51907;SDS011;39320;53.214;6.556;2022-10-31T05:54:59;3.72;;;3.42;;
51907;SDS011;39320;53.214;6.556;2022-10-31T05:57:25;3.30;;;3.05;;
51907;SDS011;39320;53.214;6.556;2022-10-31T05:59:51;3.67;;;3.40;;
51907;SDS011;39320;53.214;6.556;2022-10-31T06:02:21;3.10;;;2.90;;
51907;SDS011;39320;53.214;6.556;2022-10-31T06:04:46;3.63;;;3.33;;
51907;SDS011;39320;53.214;6.556;2022-10-31T06:07:12;3.17;;;2.83;;
51907;SDS011;39320;53.214;6.556;2022-10-31T06:09:38;3.35;;;3.05;;
51907;SDS011;39320;53.214;6.556;2022-10-31T06:12:04;3.63;;;3.30;;
51907;SDS011;39320;53.214;6.556;2022-10-31T06:14:30;3.47;;;3.28;;
51907;SDS011;39320;53.214;6.556;2022-10-31T06:16:57;3.63;;;3.33;;
51907;SDS011;39320;53.214;6.556;2022-10-31T06:19:23;3.63;;;3.33;;
51907;SDS011;39320;53.214;6.556;2022-10-31T06:21:48;3.55;;;3.25;;
51907;SDS011;39320;53.214;6.556;2022-10-31T06:24:14;3.15;;;2.95;;
51907;SDS011;39320;53.214;6.556;2022-10-31T06:26:40;4.15;;;3.72;;
51907;SDS011;39320;53.214;6.556;2022-10-31T06:29:06;3.03;;;2.83;;
51907;SDS011;39320;53.214;6.556;2022-10-31T06:31:32;3.33;;;3.03;;
51907;SDS011;39320;53.214;6.556;2022-10-31T06:33:57;3.38;;;3.08;;
51907;SDS011;39320;53.214;6.556;2022-10-31T06:36:23;3.33;;;3.13;;
51907;SDS011;39320;53.214;6.556;2022-10-31T06:38:49;3.70;;;3.40;;
51907;SDS011;39320;53.214;6.556;2022-10-31T06:41:15;3.58;;;3.28;;
51907;SDS011;39320;53.214;6.556;2022-10-31T06:43:40;3.45;;;3.15;;
51907;SDS011;39320;53.214;6.556;2022-10-31T06:46:06;3.88;;;3.58;;
51907;SDS011;39320;53.214;6.556;2022-10-31T06:48:32;3.90;;;3.60;;
51907;SDS011;39320;53.214;6.556;2022-10-31T06:50:58;3.60;;;3.30;;
51907;SDS011;39320;53.214;6.556;2022-10-31T06:53:25;3.38;;;3.10;;
51907;SDS011;39320;53.214;6.556;2022-10-31T06:55:52;2.95;;;2.75;;
51907;SDS011;39320;53.214;6.556;2022-10-31T06:58:18;3.53;;;3.22;;
51907;SDS011;39320;53.214;6.556;2022-10-31T07:00:46;3.33;;;3.13;;
51907;SDS011;39320;53.214;6.556;2022-10-31T07:03:13;3.28;;;2.97;;
51907;SDS011;39320;53.214;6.556;2022-10-31T07:05:40;3.15;;;2.95;;
51907;SDS011;39320;53.214;6.556;2022-10-31T07:08:07;3.35;;;3.15;;
51907;SDS011;39320;53.214;6.556;2022-10-31T07:10:35;4.13;;;3.67;;
51907;SDS011;39320;53.214;6.556;2022-10-31T07:13:03;3.30;;;3.00;;
51907;SDS011;39320;53.214;6.556;2022-10-31T07:15:33;3.13;;;2.92;;
51907;SDS011;39320;53.214;6.556;2022-10-31T07:18:01;3.22;;;3.00;;
51907;SDS011;39320;53.214;6.556;2022-10-31T07:20:28;3.30;;;2.90;;
51907;SDS011;39320;53.214;6.556;2022-10-31T07:22:57;3.47;;;3.17;;
51907;SDS011;39320;53.214;6.556;2022-10-31T07:25:23;3.83;;;3.53;;
51907;SDS011;39320;53.214;6.556;2022-10-31T07:27:50;3.53;;;3.33;;
51907;SDS011;39320;53.214;6.556;2022-10-31T07:30:16;3.42;;;3.22;;
51907;SDS011;39320;53.214;6.556;2022-10-31T07:32:48;3.85;;;3.55;;
51907;SDS011;39320;53.214;6.556;2022-10-31T07:35:16;3.75;;;3.50;;
51907;SDS011;39320;53.214;6.556;2022-10-31T07:37:49;3.45;;;3.20;;
51907;SDS011;39320;53.214;6.556;2022-10-31T07:40:15;4.00;;;3.70;;
51907;SDS011;39320;53.214;6.556;2022-10-31T07:42:42;3.58;;;3.28;;
51907;SDS011;39320;53.214;6.556;2022-10-31T07:45:11;3.80;;;3.50;;
51907;SDS011;39320;53.214;6.556;2022-10-31T07:47:43;3.70;;;3.40;;
51907;SDS011;39320;53.214;6.556;2022-10-31T07:50:20;3.55;;;3.25;;
51907;SDS011;39320;53.214;6.556;2022-10-31T07:52:48;3.72;;;3.53;;
51907;SDS011;39320;53.214;6.556;2022-10-31T07:55:22;3.93;;;3.63;;
51907;SDS011;39320;53.214;6.556;2022-10-31T08:00:24;4.47;;;4.18;;
51907;SDS011;39320;53.214;6.556;2022-10-31T08:03:00;3.78;;;3.47;;
51907;SDS011;39320;53.214;6.556;2022-10-31T08:05:31;4.15;;;3.78;;
51907;SDS011;39320;53.214;6.556;2022-10-31T08:07:57;3.60;;;3.33;;
51907;SDS011;39320;53.214;6.556;2022-10-31T08:10:24;3.65;;;3.25;;
51907;SDS011;39320;53.214;6.556;2022-10-31T08:12:57;4.10;;;3.80;;
51907;SDS011;39320;53.214;6.556;2022-10-31T08:15:31;3.85;;;3.53;;
51907;SDS011;39320;53.214;6.556;2022-10-31T08:17:59;4.20;;;3.80;;
51907;SDS011;39320;53.214;6.556;2022-10-31T08:20:25;3.90;;;3.60;;
51907;SDS011;39320;53.214;6.556;2022-10-31T08:22:55;4.15;;;3.85;;
51907;SDS011;39320;53.214;6.556;2022-10-31T08:25:25;3.92;;;3.63;;
51907;SDS011;39320;53.214;6.556;2022-10-31T08:27:53;3.72;;;3.42;;
51907;SDS011;39320;53.214;6.556;2022-10-31T08:30:20;3.72;;;3.42;;
51907;SDS011;39320;53.214;6.556;2022-10-31T08:32:47;4.15;;;3.85;;
51907;SDS011;39320;53.214;6.556;2022-10-31T08:35:21;4.00;;;3.70;;
51907;SDS011;39320;53.214;6.556;2022-10-31T08:37:51;3.67;;;3.38;;
51907;SDS011;39320;53.214;6.556;2022-10-31T08:40:19;4.57;;;4.18;;
51907;SDS011;39320;53.214;6.556;2022-10-31T08:42:45;4.88;;;4.47;;
51907;SDS011;39320;53.214;6.556;2022-10-31T08:45:11;4.60;;;4.20;;
51907;SDS011;39320;53.214;6.556;2022-10-31T08:47:37;4.25;;;3.95;;
51907;SDS011;39320;53.214;6.556;2022-10-31T08:50:03;4.05;;;3.75;;
51907;SDS011;39320;53.214;6.556;2022-10-31T08:52:29;3.67;;;3.38;;
51907;SDS011;39320;53.214;6.556;2022-10-31T08:54:54;3.30;;;3.10;;
51907;SDS011;39320;53.214;6.556;2022-10-31T08:57:20;3.72;;;3.42;;
51907;SDS011;39320;53.214;6.556;2022-10-31T08:59:46;3.42;;;3.13;;
51907;SDS011;39320;53.214;6.556;2022-10-31T09:02:12;3.53;;;3.33;;
51907;SDS011;39320;53.214;6.556;2022-10-31T09:04:38;3.45;;;3.15;;
51907;SDS011;39320;53.214;6.556;2022-10-31T09:07:04;3.65;;;3.38;;
51907;SDS011;39320;53.214;6.556;2022-10-31T09:09:30;3.40;;;3.10;;
51907;SDS011;39320;53.214;6.556;2022-10-31T09:11:55;3.30;;;3.10;;
51907;SDS011;39320;53.214;6.556;2022-10-31T09:14:24;3.47;;;3.22;;
51907;SDS011;39320;53.214;6.556;2022-10-31T09:16:50;3.50;;;3.30;;
51907;SDS011;39320;53.214;6.556;2022-10-31T09:19:19;3.40;;;3.20;;
51907;SDS011;39320;53.214;6.556;2022-10-31T09:21:45;3.35;;;3.05;;
51907;SDS011;39320;53.214;6.556;2022-10-31T09:24:14;3.35;;;3.05;;
51907;SDS011;39320;53.214;6.556;2022-10-31T09:26:39;3.45;;;3.00;;
51907;SDS011;39320;53.214;6.556;2022-10-31T09:29:05;3.17;;;2.97;;
51907;SDS011;39320;53.214;6.556;2022-10-31T09:31:31;3.60;;;3.10;;
51907;SDS011;39320;53.214;6.556;2022-10-31T09:33:57;3.55;;;3.30;;
51907;SDS011;39320;53.214;6.556;2022-10-31T09:36:22;3.95;;;3.65;;
51907;SDS011;39320;53.214;6.556;2022-10-31T09:38:48;3.22;;;2.95;;
51907;SDS011;39320;53.214;6.556;2022-10-31T09:41:44;3.55;;;3.25;;
51907;SDS011;39320;53.214;6.556;2022-10-31T09:52:28;3.60;;;3.30;;
51907;SDS011;39320;53.214;6.556;2022-10-31T09:57:36;3.50;;;3.20;;
51907;SDS011;39320;53.214;6.556;2022-10-31T10:00:16;3.15;;;2.95;;
51907;SDS011;39320;53.214;6.556;2022-10-31T10:02:46;3.53;;;3.22;;
51907;SDS011;39320;53.214;6.556;2022-10-31T10:05:18;3.15;;;2.83;;
51907;SDS011;39320;53.214;6.556;2022-10-31T10:08:29;3.20;;;2.92;;
51907;SDS011;39320;53.214;6.556;2022-10-31T10:14:01;2.83;;;2.63;;
51907;SDS011;39320;53.214;6.556;2022-10-31T10:24:39;3.15;;;2.85;;
51907;SDS011;39320;53.214;6.556;2022-10-31T10:30:21;2.72;;;2.53;;
51907;SDS011;39320;53.214;6.556;2022-10-31T10:33:12;2.72;;;2.53;;
51907;SDS011;39320;53.214;6.556;2022-10-31T10:35:43;3.47;;;3.17;;
51907;SDS011;39320;53.214;6.556;2022-10-31T10:41:23;3.30;;;3.00;;
51907;SDS011;39320;53.214;6.556;2022-10-31T10:43:52;3.47;;;3.17;;
51907;SDS011;39320;53.214;6.556;2022-10-31T10:51:59;3.25;;;3.00;;
51907;SDS011;39320;53.214;6.556;2022-10-31T11:00:03;3.95;;;3.65;;
51907;SDS011;39320;53.214;6.556;2022-10-31T11:02:42;3.67;;;3.38;;
51907;SDS011;39320;53.214;6.556;2022-10-31T11:05:21;4.50;;;4.10;;
51907;SDS011;39320;53.214;6.556;2022-10-31T11:07:58;3.92;;;3.42;;
51907;SDS011;39320;53.214;6.556;2022-10-31T11:10:24;4.35;;;3.95;;
51907;SDS011;39320;53.214;6.556;2022-10-31T11:15:28;3.70;;;3.40;;
51907;SDS011;39320;53.214;6.556;2022-10-31T11:18:22;3.75;;;3.45;;
51907;SDS011;39320;53.214;6.556;2022-10-31T11:20:54;3.10;;;2.88;;
51907;SDS011;39320;53.214;6.556;2022-10-31T11:23:23;3.33;;;3.10;;
51907;SDS011;39320;53.214;6.556;2022-10-31T11:25:57;3.08;;;2.88;;
51907;SDS011;39320;53.214;6.556;2022-10-31T11:28:28;3.22;;;2.97;;
51907;SDS011;39320;53.214;6.556;2022-10-31T11:30:58;3.33;;;3.05;;
51907;SDS011;39320;53.214;6.556;2022-10-31T11:35:54;3.22;;;2.92;;
51907;SDS011;39320;53.214;6.556;2022-10-31T11:38:21;3.03;;;2.75;;
51907;SDS011;39320;53.214;6.556;2022-10-31T11:43:38;3.80;;;2.90;;
51907;SDS011;39320;53.214;6.556;2022-10-31T11:46:10;2.55;;;2.35;;
51907;SDS011;39320;53.214;6.556;2022-10-31T11:48:45;2.53;;;2.22;;
51907;SDS011;39320;53.214;6.556;2022-10-31T11:51:13;2.30;;;2.10;;
51907;SDS011;39320;53.214;6.556;2022-10-31T11:53:53;2.65;;;2.40;;
51907;SDS011;39320;53.214;6.556;2022-10-31T11:56:21;2.25;;;2.00;;
51907;SDS011;39320;53.214;6.556;2022-10-31T11:59:01;2.13;;;1.92;;
51907;SDS011;39320;53.214;6.556;2022-10-31T12:01:30;2.70;;;2.30;;
51907;SDS011;39320;53.214;6.556;2022-10-31T12:04:00;2.58;;;1.70;;
51907;SDS011;39320;53.214;6.556;2022-10-31T12:09:04;3.50;;;1.85;;
51907;SDS011;39320;53.214;6.556;2022-10-31T12:25:26;1.95;;;1.45;;
51907;SDS011;39320;53.214;6.556;2022-10-31T12:39:24;2.05;;;1.65;;
51907;SDS011;39320;53.214;6.556;2022-10-31T12:42:34;2.20;;;2.00;;
51907;SDS011;39320;53.214;6.556;2022-10-31T12:51:11;3.47;;;1.55;;
51907;SDS011;39320;53.214;6.556;2022-10-31T12:59:53;1.92;;;1.73;;
51907;SDS011;39320;53.214;6.556;2022-10-31T13:05:02;2.13;;;1.90;;
51907;SDS011;39320;53.214;6.556;2022-10-31T13:07:48;2.35;;;2.00;;
51907;SDS011;39320;53.214;6.556;2022-10-31T13:10:20;1.67;;;1.30;;
51907;SDS011;39320;53.214;6.556;2022-10-31T13:12:51;2.60;;;1.42;;
51907;SDS011;39320;53.214;6.556;2022-10-31T13:15:27;3.45;;;1.55;;
51907;SDS011;39320;53.214;6.556;2022-10-31T13:17:57;2.25;;;1.38;;
51907;SDS011;39320;53.214;6.556;2022-10-31T13:20:42;2.55;;;1.38;;
51907;SDS011;39320;53.214;6.556;2022-10-31T13:23:12;1.80;;;1.38;;
51907;SDS011;39320;53.214;6.556;2022-10-31T13:25:56;1.80;;;1.40;;
51907;SDS011;39320;53.214;6.556;2022-10-31T13:31:14;2.03;;;1.15;;
51907;SDS011;39320;53.214;6.556;2022-10-31T13:33:44;2.03;;;1.27;;
51907;SDS011;39320;53.214;6.556;2022-10-31T13:46:34;1.92;;;1.38;;
51907;SDS011;39320;53.214;6.556;2022-10-31T13:49:04;1.75;;;1.45;;
51907;SDS011;39320;53.214;6.556;2022-10-31T13:51:46;1.05;;;0.85;;
51907;SDS011;39320;53.214;6.556;2022-10-31T13:54:32;1.85;;;1.17;;
51907;SDS011;39320;53.214;6.556;2022-10-31T13:56:59;2.03;;;1.40;;
51907;SDS011;39320;53.214;6.556;2022-10-31T13:59:27;1.13;;;0.90;;
51907;SDS011;39320;53.214;6.556;2022-10-31T14:01:58;1.88;;;1.20;;
51907;SDS011;39320;53.214;6.556;2022-10-31T14:04:27;2.22;;;1.30;;
51907;SDS011;39320;53.214;6.556;2022-10-31T14:07:06;2.17;;;1.17;;
51907;SDS011;39320;53.214;6.556;2022-10-31T14:09:38;2.05;;;1.45;;
51907;SDS011;39320;53.214;6.556;2022-10-31T14:15:13;1.92;;;1.20;;
51907;SDS011;39320;53.214;6.556;2022-10-31T14:17:52;4.28;;;1.70;;
51907;SDS011;39320;53.214;6.556;2022-10-31T14:20:24;1.80;;;1.40;;
51907;SDS011;39320;53.214;6.556;2022-10-31T14:22:53;1.92;;;1.65;;
51907;SDS011;39320;53.214;6.556;2022-10-31T14:25:32;1.88;;;1.27;;
51907;SDS011;39320;53.214;6.556;2022-10-31T14:28:03;1.65;;;1.48;;
51907;SDS011;39320;53.214;6.556;2022-10-31T14:30:57;2.50;;;1.58;;
51907;SDS011;39320;53.214;6.556;2022-10-31T14:33:25;2.45;;;1.85;;
51907;SDS011;39320;53.214;6.556;2022-10-31T14:36:11;2.60;;;2.13;;
51907;SDS011;39320;53.214;6.556;2022-10-31T14:47:05;2.95;;;1.70;;
51907;SDS011;39320;53.214;6.556;2022-10-31T14:52:32;1.95;;;1.70;;
51907;SDS011;39320;53.214;6.556;2022-10-31T14:55:01;3.05;;;1.60;;
51907;SDS011;39320;53.214;6.556;2022-10-31T14:57:34;2.45;;;1.70;;
51907;SDS011;39320;53.214;6.556;2022-10-31T15:00:06;1.90;;;1.65;;
51907;SDS011;39320;53.214;6.556;2022-10-31T15:05:35;3.88;;;1.83;;
51907;SDS011;39320;53.214;6.556;2022-10-31T15:08:33;3.58;;;1.95;;
51907;SDS011;39320;53.214;6.556;2022-10-31T15:11:14;2.65;;;1.70;;
51907;SDS011;39320;53.214;6.556;2022-10-31T15:13:46;1.90;;;1.65;;
51907;SDS011;39320;53.214;6.556;2022-10-31T15:18:51;2.17;;;1.55;;
51907;SDS011;39320;53.214;6.556;2022-10-31T15:21:23;2.17;;;1.73;;
51907;SDS011;39320;53.214;6.556;2022-10-31T15:23:54;2.45;;;1.90;;
51907;SDS011;39320;53.214;6.556;2022-10-31T15:26:26;2.47;;;1.83;;
51907;SDS011;39320;53.214;6.556;2022-10-31T15:29:05;2.10;;;1.90;;
51907;SDS011;39320;53.214;6.556;2022-10-31T15:31:49;2.92;;;2.08;;
51907;SDS011;39320;53.214;6.556;2022-10-31T15:34:20;3.08;;;2.10;;
51907;SDS011;39320;53.214;6.556;2022-10-31T15:36:51;3.70;;;2.15;;
51907;SDS011;39320;53.214;6.556;2022-10-31T15:39:20;4.32;;;2.33;;
51907;SDS011;39320;53.214;6.556;2022-10-31T15:47:13;3.35;;;2.28;;
51907;SDS011;39320;53.214;6.556;2022-10-31T15:49:47;2.47;;;2.28;;
51907;SDS011;39320;53.214;6.556;2022-10-31T15:55:14;3.00;;;2.30;;
51907;SDS011;39320;53.214;6.556;2022-10-31T15:57:45;2.70;;;2.50;;
51907;SDS011;39320;53.214;6.556;2022-10-31T16:03:05;2.85;;;2.65;;
51907;SDS011;39320;53.214;6.556;2022-10-31T16:05:48;3.33;;;3.13;;
51907;SDS011;39320;53.214;6.556;2022-10-31T16:13:40;3.20;;;2.90;;
51907;SDS011;39320;53.214;6.556;2022-10-31T16:16:17;2.90;;;2.70;;
51907;SDS011;39320;53.214;6.556;2022-10-31T16:18:47;3.75;;;2.83;;
51907;SDS011;39320;53.214;6.556;2022-10-31T16:21:14;2.80;;;2.53;;
51907;SDS011;39320;53.214;6.556;2022-10-31T16:23:44;3.75;;;3.25;;
51907;SDS011;39320;53.214;6.556;2022-10-31T16:26:20;3.03;;;2.40;;
51907;SDS011;39320;53.214;6.556;2022-10-31T16:28:53;3.17;;;2.88;;
51907;SDS011;39320;53.214;6.556;2022-10-31T16:31:28;3.50;;;2.90;;
51907;SDS011;39320;53.214;6.556;2022-10-31T16:34:14;3.08;;;2.78;;
51907;SDS011;39320;53.214;6.556;2022-10-31T16:36:43;2.78;;;2.58;;
51907;SDS011;39320;53.214;6.556;2022-10-31T16:39:10;2.50;;;2.30;;
51907;SDS011;39320;53.214;6.556;2022-10-31T16:41:40;3.17;;;2.60;;
51907;SDS011;39320;53.214;6.556;2022-10-31T16:44:15;3.17;;;2.53;;
51907;SDS011;39320;53.214;6.556;2022-10-31T16:47:16;2.85;;;2.22;;
51907;SDS011;39320;53.214;6.556;2022-10-31T16:49:38;2.83;;;2.55;;
51907;SDS011;39320;53.214;6.556;2022-10-31T16:52:06;2.50;;;2.15;;
51907;SDS011;39320;53.214;6.556;2022-10-31T16:54:43;2.47;;;2.20;;
51907;SDS011;39320;53.214;6.556;2022-10-31T16:57:13;2.40;;;1.73;;
51907;SDS011;39320;53.214;6.556;2022-10-31T16:59:44;3.15;;;2.10;;
51907;SDS011;39320;53.214;6.556;2022-10-31T17:02:16;2.22;;;1.88;;
51907;SDS011;39320;53.214;6.556;2022-10-31T17:04:43;2.28;;;2.00;;
51907;SDS011;39320;53.214;6.556;2022-10-31T17:07:09;2.60;;;2.40;;
51907;SDS011;39320;53.214;6.556;2022-10-31T17:09:35;2.25;;;2.05;;
51907;SDS011;39320;53.214;6.556;2022-10-31T17:12:01;2.50;;;2.30;;
51907;SDS011;39320;53.214;6.556;2022-10-31T17:14:27;2.45;;;2.25;;
51907;SDS011;39320;53.214;6.556;2022-10-31T17:16:57;2.75;;;2.53;;
51907;SDS011;39320;53.214;6.556;2022-10-31T17:19:23;2.50;;;2.30;;
51907;SDS011;39320;53.214;6.556;2022-10-31T17:21:48;2.53;;;2.33;;
51907;SDS011;39320;53.214;6.556;2022-10-31T17:24:14;2.70;;;2.50;;
51907;SDS011;39320;53.214;6.556;2022-10-31T17:26:40;2.55;;;2.30;;
51907;SDS011;39320;53.214;6.556;2022-10-31T17:29:07;2.75;;;2.55;;
51907;SDS011;39320;53.214;6.556;2022-10-31T17:31:33;3.38;;;3.08;;
51907;SDS011;39320;53.214;6.556;2022-10-31T17:34:03;3.13;;;2.92;;
51907;SDS011;39320;53.214;6.556;2022-10-31T17:36:32;3.10;;;2.90;;
51907;SDS011;39320;53.214;6.556;2022-10-31T17:38:58;3.55;;;3.25;;
51907;SDS011;39320;53.214;6.556;2022-10-31T17:41:25;3.55;;;3.25;;
51907;SDS011;39320;53.214;6.556;2022-10-31T17:43:54;4.13;;;3.83;;
51907;SDS011;39320;53.214;6.556;2022-10-31T17:46:20;3.67;;;3.38;;
51907;SDS011;39320;53.214;6.556;2022-10-31T17:48:46;3.75;;;3.40;;
51907;SDS011;39320;53.214;6.556;2022-10-31T17:51:12;4.18;;;3.88;;
51907;SDS011;39320;53.214;6.556;2022-10-31T17:53:39;3.83;;;3.42;;
51907;SDS011;39320;53.214;6.556;2022-10-31T17:56:05;4.07;;;3.78;;
51907;SDS011;39320;53.214;6.556;2022-10-31T17:58:33;4.22;;;3.88;;
51907;SDS011;39320;53.214;6.556;2022-10-31T18:01:05;5.07;;;4.65;;
51907;SDS011;39320;53.214;6.556;2022-10-31T18:03:32;4.57;;;4.15;;
51907;SDS011;39320;53.214;6.556;2022-10-31T18:05:58;4.97;;;4.55;;
51907;SDS011;39320;53.214;6.556;2022-10-31T18:08:25;5.43;;;5.03;;